createdAt,value
2018-12-29T00:00:55.188Z,-2.20
2018-12-29T00:03:25.399Z,-2.20
2018-12-29T00:05:55.577Z,-2.20
2018-12-29T00:08:24.388Z,-2.20
2018-12-29T00:10:55.573Z,-2.20
2018-12-29T00:13:26.996Z,-2.20
2018-12-29T00:16:01.585Z,-2.20
2018-12-29T00:18:38.054Z,-2.20
2018-12-29T00:21:08.343Z,-2.20
2018-12-29T00:23:39.265Z,-2.20
2018-12-29T00:26:11.563Z,-2.20
2018-12-29T00:28:43.145Z,-2.20
2018-12-29T00:31:18.221Z,-2.30
2018-12-29T00:33:50.801Z,-2.20
2018-12-29T00:36:23.317Z,-2.30
2018-12-29T00:38:54.896Z,-2.20
2018-12-29T00:41:29.240Z,-2.20
2018-12-29T00:44:01.247Z,-2.30
2018-12-29T00:46:33.640Z,-2.30
2018-12-29T00:49:07.208Z,-2.30
2018-12-29T00:51:38.853Z,-2.20
2018-12-29T00:54:11.347Z,-2.10
2018-12-29T00:56:42.346Z,-2.10
2018-12-29T00:59:16.844Z,-2.10
2018-12-29T01:01:47.529Z,-2.10
2018-12-29T01:04:18.952Z,-2.10
2018-12-29T01:06:49.705Z,-2.10
2018-12-29T01:09:21.152Z,-2.10
2018-12-29T01:11:51.024Z,-2.10
2018-12-29T01:14:25.483Z,-2.10
2018-12-29T01:16:56.169Z,-2.00
2018-12-29T01:19:26.092Z,-2.10
2018-12-29T01:21:55.628Z,-2.10
2018-12-29T01:24:27.121Z,-2.00
2018-12-29T01:27:15.989Z,-2.10
2018-12-29T01:29:46.904Z,-2.10
2018-12-29T01:32:16.404Z,-2.10
2018-12-29T01:34:47.237Z,-2.10
2018-12-29T01:37:18.364Z,-2.00
2018-12-29T01:39:49.237Z,-2.00
2018-12-29T01:42:20.860Z,-2.00
2018-12-29T01:44:54.449Z,-2.00
2018-12-29T01:47:27.160Z,-2.00
2018-12-29T01:49:57.607Z,-2.00
2018-12-29T01:52:29.105Z,-1.90
2018-12-29T01:55:01.205Z,-1.90
2018-12-29T01:57:33.844Z,-2.00
2018-12-29T02:00:04.041Z,-2.00
2018-12-29T02:02:35.049Z,-1.90
2018-12-29T02:05:07.934Z,-2.00
2018-12-29T02:07:38.896Z,-1.90
2018-12-29T02:10:10.700Z,-1.90
2018-12-29T02:12:43.274Z,-2.00
2018-12-29T02:15:13.177Z,-1.90
2018-12-29T02:17:45.162Z,-1.90
2018-12-29T02:20:15.125Z,-1.90
2018-12-29T02:22:46.809Z,-2.00
2018-12-29T02:25:18.337Z,-2.00
2018-12-29T02:27:49.206Z,-2.00
2018-12-29T02:30:20.378Z,-2.00
2018-12-29T02:32:51.103Z,-1.90
2018-12-29T02:35:24.051Z,-1.90
2018-12-29T02:37:54.555Z,-2.00
2018-12-29T02:40:25.075Z,-2.00
2018-12-29T02:42:59.309Z,-2.00
2018-12-29T02:45:33.316Z,-2.00
2018-12-29T02:48:06.026Z,-2.00
2018-12-29T02:50:38.377Z,-1.90
2018-12-29T02:53:08.914Z,-1.90
2018-12-29T02:55:43.534Z,-1.90
2018-12-29T02:58:15.230Z,-1.90
2018-12-29T03:00:46.205Z,-1.90
2018-12-29T03:03:17.364Z,-1.90
2018-12-29T03:05:48.458Z,-1.90
2018-12-29T03:08:18.068Z,-1.80
2018-12-29T03:10:48.954Z,-1.80
2018-12-29T03:13:22.355Z,-1.80
2018-12-29T03:15:53.984Z,-1.80
2018-12-29T03:18:27.561Z,-1.80
2018-12-29T03:20:59.004Z,-1.80
2018-12-29T03:23:32.284Z,-1.80
2018-12-29T03:26:03.160Z,-1.80
2018-12-29T03:28:33.159Z,-1.80
2018-12-29T03:31:05.107Z,-1.80
2018-12-29T03:33:36.410Z,-1.80
2018-12-29T03:36:12.757Z,-1.70
2018-12-29T03:38:44.189Z,-1.70
2018-12-29T03:41:15.322Z,-1.70
2018-12-29T03:43:44.980Z,-1.70
2018-12-29T03:46:14.965Z,-1.60
2018-12-29T03:48:44.697Z,-1.60
2018-12-29T03:51:15.765Z,-1.60
2018-12-29T03:53:49.769Z,-1.60
2018-12-29T03:56:22.070Z,-1.60
2018-12-29T03:58:57.077Z,-1.60
2018-12-29T04:01:27.978Z,-1.60
2018-12-29T04:03:58.889Z,-1.60
2018-12-29T04:06:32.200Z,-1.60
2018-12-29T04:09:20.089Z,-1.50
2018-12-29T04:11:51.209Z,-1.50
2018-12-29T04:14:21.938Z,-1.50
2018-12-29T04:16:55.099Z,-1.50
2018-12-29T04:19:24.613Z,-1.50
2018-12-29T04:21:54.278Z,-1.50
2018-12-29T04:24:25.778Z,-1.50
2018-12-29T04:26:56.859Z,-1.50
2018-12-29T04:29:27.562Z,-1.50
2018-12-29T04:31:57.257Z,-1.50
2018-12-29T04:34:29.300Z,-1.50
2018-12-29T04:36:59.927Z,-1.50
2018-12-29T04:39:30.745Z,-1.50
2018-12-29T04:42:01.091Z,-1.50
2018-12-29T04:44:33.850Z,-1.50
2018-12-29T04:47:03.996Z,-1.50
2018-12-29T04:49:32.912Z,-1.50
2018-12-29T04:52:02.116Z,-1.50
2018-12-29T04:54:32.380Z,-1.50
2018-12-29T04:57:02.784Z,-1.50
2018-12-29T04:59:33.097Z,-1.40
2018-12-29T05:02:05.248Z,-1.40
2018-12-29T05:04:36.561Z,-1.40
2018-12-29T05:07:07.667Z,-1.40
2018-12-29T05:09:41.540Z,-1.40
2018-12-29T05:12:11.792Z,-1.40
2018-12-29T05:14:44.071Z,-1.30
2018-12-29T05:17:16.633Z,-1.30
2018-12-29T05:19:49.190Z,-1.30
2018-12-29T05:22:22.191Z,-1.30
2018-12-29T05:24:53.609Z,-1.30
2018-12-29T05:27:25.460Z,-1.30
2018-12-29T05:29:58.114Z,-1.30
2018-12-29T05:32:29.791Z,-1.30
2018-12-29T05:35:04.792Z,-1.30
2018-12-29T05:37:37.854Z,-1.30
2018-12-29T05:40:09.426Z,-1.30
2018-12-29T05:42:41.885Z,-1.40
2018-12-29T05:45:13.623Z,-1.30
2018-12-29T05:47:45.761Z,-1.30
2018-12-29T05:50:17.645Z,-1.30
2018-12-29T05:52:49.974Z,-1.30
2018-12-29T05:55:20.819Z,-1.30
2018-12-29T05:57:55.317Z,-1.30
2018-12-29T06:00:28.001Z,-1.30
2018-12-29T06:02:58.602Z,-1.20
2018-12-29T06:05:32.524Z,-1.20
2018-12-29T06:08:03.844Z,-1.30
2018-12-29T06:10:36.693Z,-1.30
2018-12-29T06:13:09.196Z,-1.30
2018-12-29T06:15:41.330Z,-1.30
2018-12-29T06:18:13.821Z,-1.30
2018-12-29T06:20:46.252Z,-1.30
2018-12-29T06:23:17.813Z,-1.30
2018-12-29T06:25:49.290Z,-1.30
2018-12-29T06:28:22.569Z,-1.20
2018-12-29T06:30:54.464Z,-1.30
2018-12-29T06:33:24.838Z,-1.30
2018-12-29T06:35:57.616Z,-1.30
2018-12-29T06:38:30.507Z,-1.30
2018-12-29T06:41:03.106Z,-1.20
2018-12-29T06:43:36.371Z,-1.30
2018-12-29T06:46:06.970Z,-1.20
2018-12-29T06:48:38.608Z,-1.20
2018-12-29T06:51:10.440Z,-1.20
2018-12-29T06:53:41.401Z,-1.20
2018-12-29T06:56:12.304Z,-1.20
2018-12-29T06:58:46.760Z,-1.20
2018-12-29T07:01:18.584Z,-1.20
2018-12-29T07:03:52.022Z,-1.20
2018-12-29T07:06:23.568Z,-1.20
2018-12-29T07:08:55.924Z,-1.20
2018-12-29T07:11:28.443Z,-1.20
2018-12-29T07:14:00.854Z,-1.30
2018-12-29T07:16:31.380Z,-1.30
2018-12-29T07:19:02.481Z,-1.30
2018-12-29T07:21:33.938Z,-1.30
2018-12-29T07:24:05.970Z,-1.30
2018-12-29T07:26:39.257Z,-1.30
2018-12-29T07:29:10.124Z,-1.30
2018-12-29T07:31:42.550Z,-1.40
2018-12-29T07:34:15.660Z,-1.40
2018-12-29T07:36:46.304Z,-1.40
2018-12-29T07:39:18.064Z,-1.40
2018-12-29T07:41:50.601Z,-1.40
2018-12-29T07:44:21.596Z,-1.40
2018-12-29T07:46:53.773Z,-1.40
2018-12-29T07:49:26.411Z,-1.50
2018-12-29T07:51:59.824Z,-1.50
2018-12-29T07:54:30.348Z,-1.50
2018-12-29T07:57:02.377Z,-1.50
2018-12-29T07:59:36.906Z,-1.50
2018-12-29T08:02:08.465Z,-1.50
2018-12-29T08:04:40.279Z,-1.50
2018-12-29T08:07:10.868Z,-1.50
2018-12-29T08:09:42.520Z,-1.50
2018-12-29T08:12:16.128Z,-1.40
2018-12-29T08:14:47.473Z,-1.40
2018-12-29T08:17:20.850Z,-1.40
2018-12-29T08:19:52.793Z,-1.40
2018-12-29T08:22:24.741Z,-1.40
2018-12-29T08:24:55.535Z,-1.40
2018-12-29T08:27:24.698Z,-1.40
2018-12-29T08:29:56.027Z,-1.40
2018-12-29T08:32:29.495Z,-1.30
2018-12-29T08:35:03.849Z,-1.30
2018-12-29T08:37:35.815Z,-1.30
2018-12-29T08:40:08.317Z,-1.30
2018-12-29T08:42:40.104Z,-1.20
2018-12-29T08:45:12.421Z,-1.20
2018-12-29T08:47:43.792Z,-1.20
2018-12-29T08:50:16.590Z,-1.20
2018-12-29T08:52:47.138Z,-1.20
2018-12-29T08:55:21.642Z,-1.30
2018-12-29T08:57:53.993Z,-1.30
2018-12-29T09:00:25.628Z,-1.30
2018-12-29T09:02:58.601Z,-1.30
2018-12-29T09:05:31.144Z,-1.40
2018-12-29T09:08:03.923Z,-1.30
2018-12-29T09:10:35.924Z,-1.30
2018-12-29T09:13:07.664Z,-1.40
2018-12-29T09:15:40.596Z,-1.40
2018-12-29T09:18:11.216Z,-1.40
2018-12-29T09:20:40.288Z,-1.40
2018-12-29T09:23:11.541Z,-1.40
2018-12-29T09:25:45.640Z,-1.40
2018-12-29T09:28:19.664Z,-1.30
2018-12-29T09:30:51.303Z,-1.30
2018-12-29T09:33:23.453Z,-1.30
2018-12-29T09:35:54.490Z,-1.30
2018-12-29T09:38:25.937Z,-1.30
2018-12-29T09:40:57.136Z,-1.20
2018-12-29T09:43:26.311Z,-1.20
2018-12-29T09:45:55.560Z,-1.20
2018-12-29T09:48:27.187Z,-1.10
2018-12-29T09:51:00.141Z,-1.10
2018-12-29T09:53:31.697Z,-1.10
2018-12-29T09:56:02.336Z,-1.00
2018-12-29T09:58:34.093Z,-1.00
2018-12-29T10:01:05.173Z,-1.00
2018-12-29T10:03:38.503Z,-1.00
2018-12-29T10:06:10.427Z,-0.90
2018-12-29T10:08:39.574Z,-0.90
2018-12-29T10:11:14.053Z,-0.90
2018-12-29T10:13:43.308Z,-0.90
2018-12-29T10:16:14.994Z,-0.80
2018-12-29T10:18:47.498Z,-0.80
2018-12-29T10:21:21.964Z,-0.70
2018-12-29T10:23:53.615Z,-0.70
2018-12-29T10:26:28.330Z,-0.70
2018-12-29T10:29:01.402Z,-0.70
2018-12-29T10:31:32.337Z,-0.70
2018-12-29T10:34:04.468Z,-0.70
2018-12-29T10:36:34.037Z,-0.80
2018-12-29T10:39:06.732Z,-0.80
2018-12-29T10:41:39.500Z,-0.80
2018-12-29T10:44:11.914Z,-0.80
2018-12-29T10:46:42.013Z,-0.80
2018-12-29T10:49:12.252Z,-0.80
2018-12-29T10:51:46.297Z,-0.80
2018-12-29T10:54:16.160Z,-0.80
2018-12-29T10:56:48.717Z,-0.80
2018-12-29T10:59:21.697Z,-0.80
2018-12-29T11:01:53.742Z,-0.80
2018-12-29T11:04:25.290Z,-0.80
2018-12-29T11:06:54.766Z,-0.70
2018-12-29T11:09:24.251Z,-0.70
2018-12-29T11:11:56.395Z,-0.70
2018-12-29T11:14:27.802Z,-0.70
2018-12-29T11:17:00.648Z,-0.70
2018-12-29T11:19:33.840Z,-0.70
2018-12-29T11:22:04.100Z,-0.70
2018-12-29T11:24:35.262Z,-0.70
2018-12-29T11:27:04.370Z,-0.70
2018-12-29T11:29:33.708Z,-0.70
2018-12-29T11:32:05.561Z,-0.70
2018-12-29T11:34:35.190Z,-0.70
2018-12-29T11:37:06.060Z,-0.70
2018-12-29T11:39:38.089Z,-0.70
2018-12-29T11:42:10.133Z,-0.70
2018-12-29T11:44:41.156Z,-0.80
2018-12-29T11:47:12.817Z,-0.70
2018-12-29T11:49:46.249Z,-0.70
2018-12-29T11:52:17.962Z,-0.80
2018-12-29T11:54:49.854Z,-0.70
2018-12-29T11:57:20.296Z,-0.70
2018-12-29T11:59:50.098Z,-0.70
2018-12-29T12:02:24.491Z,-0.70
2018-12-29T12:04:51.269Z,-0.70
2018-12-29T12:07:20.995Z,-0.70
2018-12-29T12:09:51.902Z,-0.70
2018-12-29T12:12:22.751Z,-0.70
2018-12-29T12:14:56.146Z,-0.70
2018-12-29T12:17:28.814Z,-0.70
2018-12-29T12:20:03.514Z,-0.70
2018-12-29T12:22:35.004Z,-0.80
2018-12-29T12:25:06.531Z,-0.80
2018-12-29T12:27:38.937Z,-0.80
2018-12-29T12:30:12.105Z,-0.80
2018-12-29T12:32:43.671Z,-0.90
2018-12-29T12:35:16.040Z,-0.90
2018-12-29T12:37:48.363Z,-0.90
2018-12-29T12:40:20.962Z,-1.00
2018-12-29T12:42:55.979Z,-1.00
2018-12-29T12:45:27.433Z,-1.00
2018-12-29T12:48:05.023Z,-1.00
2018-12-29T12:50:34.005Z,-1.00
2018-12-29T12:53:05.977Z,-1.10
2018-12-29T12:55:37.833Z,-1.10
2018-12-29T12:58:10.104Z,-1.10
2018-12-29T13:00:41.424Z,-1.20
2018-12-29T13:03:14.185Z,-1.10
2018-12-29T13:05:45.488Z,-1.20
2018-12-29T13:08:15.785Z,-1.20
2018-12-29T13:10:45.697Z,-1.20
2018-12-29T13:13:15.146Z,-1.20
2018-12-29T13:15:44.772Z,-1.30
2018-12-29T13:18:16.376Z,-1.30
2018-12-29T13:20:48.577Z,-1.40
2018-12-29T13:23:18.714Z,-1.40
2018-12-29T13:25:51.185Z,-1.40
2018-12-29T13:28:24.663Z,-1.50
2018-12-29T13:30:55.984Z,-1.50
2018-12-29T13:33:27.772Z,-1.50
2018-12-29T13:35:57.269Z,-1.50
2018-12-29T13:38:31.017Z,-1.50
2018-12-29T13:41:01.507Z,-1.50
2018-12-29T13:43:32.529Z,-1.50
2018-12-29T13:46:04.048Z,-1.60
2018-12-29T13:48:33.782Z,-1.60
2018-12-29T13:51:04.990Z,-1.60
2018-12-29T13:53:37.161Z,-1.60
2018-12-29T13:56:09.648Z,-1.60
2018-12-29T13:58:42.194Z,-1.60
2018-12-29T14:01:12.705Z,-1.60
2018-12-29T14:03:43.058Z,-1.60
2018-12-29T14:06:15.510Z,-1.60
2018-12-29T14:08:47.344Z,-1.60
2018-12-29T14:11:17.993Z,-1.60
2018-12-29T14:13:48.489Z,-1.60
2018-12-29T14:16:22.560Z,-1.70
2018-12-29T14:18:54.863Z,-1.70
2018-12-29T14:21:26.545Z,-1.70
2018-12-29T14:23:58.353Z,-1.70
2018-12-29T14:26:30.920Z,-1.70
2018-12-29T14:29:02.385Z,-1.70
2018-12-29T14:31:32.873Z,-1.80
2018-12-29T14:34:02.933Z,-1.80
2018-12-29T14:36:32.984Z,-1.70
2018-12-29T14:39:02.694Z,-1.70
2018-12-29T14:41:31.733Z,-1.70
2018-12-29T14:44:03.049Z,-1.70
2018-12-29T14:46:36.708Z,-1.70
2018-12-29T14:49:09.565Z,-1.70
2018-12-29T14:51:40.809Z,-1.70
2018-12-29T14:54:11.004Z,-1.70
2018-12-29T14:56:40.710Z,-1.70
2018-12-29T14:59:10.455Z,-1.70
2018-12-29T15:01:42.793Z,-1.70
2018-12-29T15:04:13.536Z,-1.70
2018-12-29T15:06:45.133Z,-1.70
2018-12-29T15:09:17.717Z,-1.70
2018-12-29T15:11:48.767Z,-1.70
2018-12-29T15:14:20.484Z,-1.70
2018-12-29T15:16:53.321Z,-1.80
2018-12-29T15:19:26.062Z,-1.70
2018-12-29T15:21:58.440Z,-1.70
2018-12-29T15:24:30.141Z,-1.70
2018-12-29T15:27:02.071Z,-1.70
2018-12-29T15:29:34.476Z,-1.70
2018-12-29T15:32:06.261Z,-1.70
2018-12-29T15:34:36.489Z,-1.60
2018-12-29T15:37:05.755Z,-1.60
2018-12-29T15:39:36.657Z,-1.60
2018-12-29T15:42:06.485Z,-1.60
2018-12-29T15:44:38.668Z,-1.60
2018-12-29T15:47:10.613Z,-1.60
2018-12-29T15:49:41.180Z,-1.50
2018-12-29T15:52:11.593Z,-1.50
2018-12-29T15:54:40.894Z,-1.50
2018-12-29T15:57:12.569Z,-1.60
2018-12-29T15:59:47.085Z,-1.60
2018-12-29T16:02:17.252Z,-1.60
2018-12-29T16:04:46.384Z,-1.60
2018-12-29T16:07:15.572Z,-1.60
2018-12-29T16:09:46.322Z,-1.60
2018-12-29T16:12:17.266Z,-1.60
2018-12-29T16:14:51.401Z,-1.60
2018-12-29T16:17:23.723Z,-1.70
2018-12-29T16:19:54.747Z,-1.60
2018-12-29T16:22:24.106Z,-1.70
2018-12-29T16:24:53.245Z,-1.70
2018-12-29T16:27:22.397Z,-1.70
2018-12-29T16:29:52.139Z,-1.70
2018-12-29T16:32:24.016Z,-1.70
2018-12-29T16:34:58.911Z,-1.70
2018-12-29T16:37:29.396Z,-1.60
2018-12-29T16:40:01.624Z,-1.70
2018-12-29T16:42:36.195Z,-1.70
2018-12-29T16:45:09.375Z,-1.70
2018-12-29T16:47:40.186Z,-1.60
2018-12-29T16:50:13.099Z,-1.70
2018-12-29T16:52:44.492Z,-1.60
2018-12-29T16:55:14.479Z,-1.70
2018-12-29T16:57:44.428Z,-1.70
2018-12-29T17:00:13.186Z,-1.60
2018-12-29T17:02:43.260Z,-1.60
2018-12-29T17:05:13.197Z,-1.70
2018-12-29T17:07:45.679Z,-1.70
2018-12-29T17:10:18.384Z,-1.70
2018-12-29T17:12:49.099Z,-1.70
2018-12-29T17:15:20.013Z,-1.70
2018-12-29T17:17:52.447Z,-1.70
2018-12-29T17:20:25.032Z,-1.70
2018-12-29T17:22:59.400Z,-1.70
2018-12-29T17:25:33.101Z,-1.80
2018-12-29T17:28:07.104Z,-1.80
2018-12-29T17:30:39.061Z,-1.80
2018-12-29T17:33:11.577Z,-1.70
2018-12-29T17:35:43.459Z,-1.80
2018-12-29T17:38:16.090Z,-1.80
2018-12-29T17:40:48.113Z,-1.70
2018-12-29T17:43:20.281Z,-1.80
2018-12-29T17:45:52.660Z,-1.70
2018-12-29T17:48:27.720Z,-1.70
2018-12-29T17:51:01.302Z,-1.70
2018-12-29T17:53:34.189Z,-1.70
2018-12-29T17:56:04.558Z,-1.70
2018-12-29T17:58:36.245Z,-1.70
2018-12-29T18:01:07.995Z,-1.70
2018-12-29T18:03:41.357Z,-1.70
2018-12-29T18:06:13.673Z,-1.70
2018-12-29T18:08:44.633Z,-1.70
2018-12-29T18:11:15.409Z,-1.80
2018-12-29T18:13:47.925Z,-1.70
2018-12-29T18:16:19.737Z,-1.70
2018-12-29T18:18:50.674Z,-1.80
2018-12-29T18:21:23.236Z,-1.80
2018-12-29T18:23:52.476Z,-1.80
2018-12-29T18:26:23.419Z,-1.70
2018-12-29T18:28:56.969Z,-1.70
2018-12-29T18:31:29.076Z,-1.70
2018-12-29T18:34:00.029Z,-1.70
2018-12-29T18:36:32.014Z,-1.70
2018-12-29T18:39:03.137Z,-1.70
2018-12-29T18:41:39.909Z,-1.70
2018-12-29T18:44:11.671Z,-1.70
2018-12-29T18:46:43.977Z,-1.80
2018-12-29T18:49:18.314Z,-1.80
2018-12-29T18:51:50.921Z,-1.80
2018-12-29T18:54:24.322Z,-1.80
2018-12-29T18:56:55.735Z,-1.80
2018-12-29T18:59:28.591Z,-1.80
2018-12-29T19:02:00.170Z,-1.80
2018-12-29T19:04:32.396Z,-1.80
2018-12-29T19:07:04.271Z,-1.70
2018-12-29T19:09:35.767Z,-1.80
2018-12-29T19:12:11.191Z,-1.80
2018-12-29T19:14:39.068Z,-1.80
2018-12-29T19:17:11.403Z,-1.80
2018-12-29T19:19:46.425Z,-1.80
2018-12-29T19:22:19.290Z,-1.80
2018-12-29T19:24:48.832Z,-1.80
2018-12-29T19:27:18.785Z,-1.80
2018-12-29T19:29:50.273Z,-1.70
2018-12-29T19:32:22.589Z,-1.70
2018-12-29T19:34:54.987Z,-1.70
2018-12-29T19:37:28.765Z,-1.70
2018-12-29T19:40:03.786Z,-1.80
2018-12-29T19:42:35.123Z,-1.80
2018-12-29T19:45:04.271Z,-1.80
2018-12-29T19:47:33.433Z,-1.80
2018-12-29T19:50:03.931Z,-1.80
2018-12-29T19:52:34.091Z,-1.80
2018-12-29T19:55:03.929Z,-1.80
2018-12-29T19:57:33.227Z,-1.80
2018-12-29T20:00:02.806Z,-1.80
2018-12-29T20:02:31.865Z,-1.80
2018-12-29T20:05:01.910Z,-1.80
2018-12-29T20:07:32.859Z,-1.80
2018-12-29T20:10:02.609Z,-1.80
2018-12-29T20:12:32.739Z,-1.80
2018-12-29T20:15:04.266Z,-1.80
2018-12-29T20:17:35.767Z,-1.90
2018-12-29T20:20:07.680Z,-1.80
2018-12-29T20:22:41.006Z,-1.90
2018-12-29T20:25:11.369Z,-1.90
2018-12-29T20:27:42.561Z,-1.90
2018-12-29T20:30:15.635Z,-1.90
2018-12-29T20:32:58.908Z,-2.00
2018-12-29T20:35:26.871Z,-2.00
2018-12-29T20:37:58.129Z,-2.00
2018-12-29T20:40:29.573Z,-2.00
2018-12-29T20:43:00.921Z,-2.10
2018-12-29T20:45:30.800Z,-2.10
2018-12-29T20:48:01.089Z,-2.10
2018-12-29T20:50:31.829Z,-2.10
2018-12-29T20:53:02.106Z,-2.10
2018-12-29T20:55:32.892Z,-2.10
2018-12-29T20:58:04.765Z,-2.20
2018-12-29T21:00:37.931Z,-2.20
2018-12-29T21:03:09.549Z,-2.20
2018-12-29T21:05:39.893Z,-2.20
2018-12-29T21:08:10.925Z,-2.20
2018-12-29T21:10:41.803Z,-2.30
2018-12-29T21:13:12.970Z,-2.30
2018-12-29T21:15:43.862Z,-2.40
2018-12-29T21:18:14.448Z,-2.40
2018-12-29T21:20:45.854Z,-2.40
2018-12-29T21:23:16.797Z,-2.40
2018-12-29T21:25:47.674Z,-2.40
2018-12-29T21:28:19.176Z,-2.40
2018-12-29T21:30:52.233Z,-2.40
2018-12-29T21:33:23.893Z,-2.40
2018-12-29T21:35:54.499Z,-2.40
2018-12-29T21:38:26.943Z,-2.40
2018-12-29T21:40:58.282Z,-2.30
2018-12-29T21:43:31.929Z,-2.30
2018-12-29T21:46:01.112Z,-2.30
2018-12-29T21:48:30.732Z,-2.40
2018-12-29T21:50:59.968Z,-2.40
2018-12-29T21:53:30.571Z,-2.40
2018-12-29T21:56:03.161Z,-2.30
2018-12-29T21:58:35.795Z,-2.30
2018-12-29T22:01:05.369Z,-2.30
2018-12-29T22:03:37.261Z,-2.30
2018-12-29T22:06:08.850Z,-2.20
2018-12-29T22:08:38.936Z,-2.30
2018-12-29T22:11:09.237Z,-2.20
2018-12-29T22:13:42.512Z,-2.20
2018-12-29T22:16:15.977Z,-2.20
2018-12-29T22:18:47.580Z,-2.20
2018-12-29T22:21:19.401Z,-2.10
2018-12-29T22:23:49.833Z,-2.20
2018-12-29T22:26:18.902Z,-2.20
2018-12-29T22:28:48.524Z,-2.20
2018-12-29T22:31:19.507Z,-2.30
2018-12-29T22:33:51.957Z,-2.20
2018-12-29T22:36:22.673Z,-2.10
2018-12-29T22:38:54.572Z,-2.20
2018-12-29T22:41:27.947Z,-2.20
2018-12-29T22:44:03.192Z,-2.30
2018-12-29T22:46:36.729Z,-2.30
2018-12-29T22:49:08.053Z,-2.30
2018-12-29T22:51:41.460Z,-2.40
2018-12-29T22:54:13.517Z,-2.40
2018-12-29T22:56:45.003Z,-2.40
2018-12-29T22:59:17.393Z,-2.40
2018-12-29T23:01:54.120Z,-2.40
2018-12-29T23:04:25.154Z,-2.40
2018-12-29T23:06:56.653Z,-2.40
2018-12-29T23:09:29.403Z,-2.40
2018-12-29T23:12:03.676Z,-2.50
2018-12-29T23:14:35.741Z,-2.40
2018-12-29T23:17:09.518Z,-2.40
2018-12-29T23:19:40.441Z,-2.50
2018-12-29T23:22:13.092Z,-2.60
2018-12-29T23:24:45.714Z,-2.50
2018-12-29T23:27:17.307Z,-2.60
2018-12-29T23:29:48.115Z,-2.60
2018-12-29T23:32:21.672Z,-2.60
2018-12-29T23:34:54.136Z,-2.60
2018-12-29T23:37:28.251Z,-2.60
2018-12-29T23:39:59.387Z,-2.60
2018-12-29T23:42:32.140Z,-2.60
2018-12-29T23:45:05.327Z,-2.60
2018-12-29T23:47:35.911Z,-2.60
2018-12-29T23:50:06.890Z,-2.60
2018-12-29T23:52:41.321Z,-2.60
2018-12-29T23:55:16.114Z,-2.60
2018-12-29T23:57:47.972Z,-2.60
